createdAt,value
2022-10-23T00:01:11.963Z,15.35
2022-10-23T00:03:39.271Z,15.73
2022-10-23T00:06:06.721Z,17.70
2022-10-23T00:08:34.346Z,17.90
2022-10-23T00:11:01.757Z,14.88
2022-10-23T00:13:30.470Z,15.85
2022-10-23T00:15:57.789Z,16.52
2022-10-23T00:18:25.163Z,14.95
2022-10-23T00:20:52.491Z,15.98
2022-10-23T00:23:19.795Z,13.75
2022-10-23T00:25:47.172Z,14.73
2022-10-23T00:28:14.472Z,14.50
2022-10-23T00:30:43.154Z,14.13
2022-10-23T00:33:10.487Z,15.65
2022-10-23T00:35:39.844Z,13.95
2022-10-23T00:38:07.458Z,14.98
2022-10-23T00:40:34.844Z,16.65
2022-10-23T00:43:02.155Z,16.33
2022-10-23T00:45:33.219Z,15.52
2022-10-23T00:48:02.165Z,17.15
2022-10-23T00:50:30.585Z,18.77
2022-10-23T00:52:58.571Z,19.35
2022-10-23T00:55:26.347Z,20.10
2022-10-23T00:57:53.772Z,19.80
2022-10-23T01:00:22.519Z,19.05
2022-10-23T01:02:50.071Z,19.60
2022-10-23T01:05:19.374Z,20.20
2022-10-23T01:07:51.336Z,18.92
2022-10-23T01:10:22.341Z,18.95
2022-10-23T01:12:52.737Z,17.63
2022-10-23T01:15:22.761Z,17.42
2022-10-23T01:17:52.893Z,18.10
2022-10-23T01:20:30.629Z,16.75
2022-10-23T01:23:11.396Z,15.38
2022-10-23T01:25:47.798Z,14.98
2022-10-23T01:28:18.850Z,15.55
2022-10-23T01:30:46.299Z,14.60
2022-10-23T01:33:15.371Z,13.98
2022-10-23T01:35:48.477Z,14.07
2022-10-23T01:38:17.569Z,12.68
2022-10-23T01:40:47.763Z,12.57
2022-10-23T01:43:19.232Z,12.32
2022-10-23T01:45:48.872Z,13.25
2022-10-23T01:48:17.917Z,13.05
2022-10-23T01:50:46.579Z,13.18
2022-10-23T01:53:14.017Z,13.63
2022-10-23T01:58:11.281Z,13.25
2022-10-23T02:00:41.438Z,12.23
2022-10-23T02:03:09.835Z,13.05
2022-10-23T02:05:39.155Z,12.88
2022-10-23T02:08:06.980Z,14.30
2022-10-23T02:10:39.354Z,13.95
2022-10-23T02:13:08.353Z,12.40
2022-10-23T02:15:37.585Z,13.63
2022-10-23T02:18:09.553Z,13.43
2022-10-23T02:20:38.413Z,12.73
2022-10-23T02:23:09.472Z,13.55
2022-10-23T02:25:40.012Z,13.45
2022-10-23T02:28:09.449Z,13.57
2022-10-23T02:30:38.401Z,12.45
2022-10-23T02:33:08.466Z,12.65
2022-10-23T02:35:36.151Z,13.25
2022-10-23T02:38:03.477Z,13.27
2022-10-23T02:40:33.780Z,12.13
2022-10-23T02:43:03.620Z,11.93
2022-10-23T02:45:33.150Z,12.35
2022-10-23T02:48:01.573Z,11.02
2022-10-23T02:50:33.285Z,11.70
2022-10-23T02:53:04.066Z,11.50
2022-10-23T02:55:36.042Z,10.65
2022-10-23T02:58:05.843Z,11.43
2022-10-23T03:00:33.875Z,11.10
2022-10-23T03:03:03.253Z,10.20
2022-10-23T03:05:35.225Z,10.77
2022-10-23T03:08:04.027Z,10.18
2022-10-23T03:10:31.399Z,10.80
2022-10-23T03:12:58.803Z,9.18
2022-10-23T03:15:26.151Z,10.00
2022-10-23T03:17:53.472Z,10.82
2022-10-23T03:20:20.794Z,10.13
2022-10-23T03:22:49.489Z,11.82
2022-10-23T03:25:16.915Z,9.63
2022-10-23T03:27:44.234Z,10.38
2022-10-23T03:30:11.877Z,9.88
2022-10-23T03:32:39.195Z,10.27
2022-10-23T03:35:06.868Z,10.32
2022-10-23T03:37:34.198Z,9.75
2022-10-23T03:40:02.930Z,9.75
2022-10-23T03:42:30.310Z,10.02
2022-10-23T03:44:57.687Z,10.02
2022-10-23T03:47:24.995Z,9.48
2022-10-23T03:49:52.352Z,10.23
2022-10-23T03:52:19.730Z,10.35
2022-10-23T03:54:47.069Z,9.68
2022-10-23T03:57:15.705Z,9.38
2022-10-23T03:59:43.092Z,9.32
2022-10-23T04:02:10.527Z,9.52
2022-10-23T04:04:37.935Z,9.55
2022-10-23T04:07:05.265Z,9.30
2022-10-23T04:09:32.547Z,9.80
2022-10-23T04:11:59.881Z,9.80
2022-10-23T04:14:28.660Z,9.60
2022-10-23T04:16:56.023Z,10.15
2022-10-23T04:19:23.343Z,11.07
2022-10-23T04:21:50.674Z,11.65
2022-10-23T04:24:21.037Z,10.93
2022-10-23T04:26:48.319Z,11.05
2022-10-23T04:29:15.644Z,11.63
2022-10-23T04:31:44.449Z,10.65
2022-10-23T04:34:11.768Z,11.13
2022-10-23T04:36:39.082Z,10.93
2022-10-23T04:39:06.553Z,10.63
2022-10-23T04:41:33.867Z,10.32
2022-10-23T04:44:01.174Z,10.77
2022-10-23T04:46:28.963Z,9.98
2022-10-23T04:48:57.663Z,9.80
2022-10-23T04:51:25.028Z,10.43
2022-10-23T04:53:52.343Z,9.35
2022-10-23T04:56:19.638Z,10.27
2022-10-23T04:58:47.028Z,8.80
2022-10-23T05:01:14.524Z,9.85
2022-10-23T05:03:41.976Z,8.93
2022-10-23T05:06:10.664Z,8.95
2022-10-23T05:08:38.028Z,9.20
2022-10-23T05:11:05.649Z,7.95
2022-10-23T05:13:33.027Z,7.97
2022-10-23T05:16:00.908Z,7.60
2022-10-23T05:18:30.956Z,7.50
2022-10-23T05:21:00.367Z,6.95
2022-10-23T05:23:30.817Z,7.13
2022-10-23T05:25:58.145Z,7.45
2022-10-23T05:28:25.456Z,7.80
2022-10-23T05:30:53.133Z,7.13
2022-10-23T05:33:20.495Z,6.93
2022-10-23T05:35:47.999Z,6.43
2022-10-23T05:38:15.694Z,7.57
2022-10-23T05:40:44.484Z,7.43
2022-10-23T05:43:11.942Z,6.57
2022-10-23T05:45:39.269Z,6.80
2022-10-23T05:48:11.332Z,6.38
2022-10-23T05:50:49.780Z,6.60
2022-10-23T05:53:17.126Z,6.57
2022-10-23T05:55:45.807Z,6.88
2022-10-23T05:58:13.189Z,7.05
2022-10-23T06:00:40.518Z,6.55
2022-10-23T06:03:07.829Z,7.45
2022-10-23T06:05:35.206Z,6.55
2022-10-23T06:08:02.616Z,7.15
2022-10-23T06:10:29.928Z,6.38
2022-10-23T06:12:58.607Z,7.13
2022-10-23T06:15:25.944Z,6.88
2022-10-23T06:17:53.244Z,7.60
2022-10-23T06:20:23.072Z,6.05
2022-10-23T06:22:52.840Z,6.20
2022-10-23T06:25:20.122Z,7.10
2022-10-23T06:27:47.464Z,6.50
2022-10-23T06:30:16.212Z,6.72
2022-10-23T06:32:43.858Z,6.50
2022-10-23T06:35:11.412Z,6.30
2022-10-23T06:37:38.721Z,6.53
2022-10-23T06:40:07.748Z,5.65
2022-10-23T06:42:35.149Z,5.93
2022-10-23T06:45:06.302Z,6.05
2022-10-23T06:47:35.905Z,5.90
2022-10-23T06:50:03.231Z,6.05
2022-10-23T06:52:46.391Z,5.60
2022-10-23T06:55:14.538Z,5.40
2022-10-23T06:57:42.315Z,6.28
2022-10-23T07:00:10.664Z,5.15
2022-10-23T07:02:39.458Z,5.00
2022-10-23T07:05:09.888Z,4.60
2022-10-23T07:07:40.092Z,4.35
2022-10-23T07:10:07.796Z,5.15
2022-10-23T07:12:35.161Z,5.07
2022-10-23T07:15:02.532Z,3.95
2022-10-23T07:17:30.176Z,3.80
2022-10-23T07:19:58.922Z,4.90
2022-10-23T07:22:26.388Z,5.55
2022-10-23T07:24:53.763Z,4.60
2022-10-23T07:27:21.099Z,4.78
2022-10-23T07:29:50.502Z,4.80
2022-10-23T07:32:17.848Z,4.72
2022-10-23T07:34:45.198Z,5.13
2022-10-23T07:37:13.885Z,4.18
2022-10-23T07:39:41.191Z,3.90
2022-10-23T07:42:09.600Z,4.28
2022-10-23T07:44:36.901Z,4.22
2022-10-23T07:47:04.364Z,3.95
2022-10-23T07:49:31.833Z,3.55
2022-10-23T07:51:59.571Z,3.65
2022-10-23T07:54:28.347Z,3.35
2022-10-23T07:56:55.687Z,3.50
2022-10-23T07:59:23.092Z,3.20
2022-10-23T08:01:52.644Z,3.53
2022-10-23T08:04:22.513Z,3.20
2022-10-23T08:06:50.020Z,2.45
2022-10-23T08:09:17.306Z,3.05
2022-10-23T08:11:45.971Z,2.78
2022-10-23T08:14:13.315Z,3.25
2022-10-23T08:16:40.997Z,3.72
2022-10-23T08:19:08.695Z,3.38
2022-10-23T08:21:36.014Z,3.58
2022-10-23T08:24:03.355Z,2.83
2022-10-23T08:26:30.728Z,3.35
2022-10-23T08:29:00.328Z,2.70
2022-10-23T08:31:28.007Z,3.40
2022-10-23T08:33:55.363Z,3.53
2022-10-23T08:36:24.371Z,3.15
2022-10-23T08:38:53.482Z,3.10
2022-10-23T08:41:25.373Z,3.00
2022-10-23T08:43:54.247Z,3.22
2022-10-23T08:46:24.988Z,3.30
2022-10-23T08:48:55.091Z,3.05
2022-10-23T08:51:24.322Z,2.90
2022-10-23T08:53:53.573Z,3.35
2022-10-23T08:56:23.504Z,2.97
2022-10-23T08:58:53.941Z,2.63
2022-10-23T09:01:28.317Z,2.60
2022-10-23T09:03:55.835Z,3.15
2022-10-23T09:06:29.707Z,2.45
2022-10-23T09:09:00.328Z,2.28
2022-10-23T09:11:32.394Z,2.80
2022-10-23T09:14:17.378Z,2.20
2022-10-23T09:16:50.323Z,2.72
2022-10-23T09:19:18.461Z,1.85
2022-10-23T09:21:46.696Z,2.60
2022-10-23T09:24:17.742Z,2.40
2022-10-23T09:26:48.178Z,1.90
2022-10-23T09:29:19.696Z,2.40
2022-10-23T09:31:52.156Z,2.35
2022-10-23T09:34:20.684Z,2.47
2022-10-23T09:36:51.931Z,2.30
2022-10-23T09:39:24.500Z,2.50
2022-10-23T09:41:54.134Z,2.65
2022-10-23T09:44:25.077Z,2.42
2022-10-23T09:46:54.698Z,2.20
2022-10-23T09:49:23.450Z,2.20
2022-10-23T09:51:55.486Z,2.13
2022-10-23T09:54:24.391Z,2.28
2022-10-23T09:56:52.667Z,2.22
2022-10-23T09:59:25.067Z,2.20
2022-10-23T10:01:54.654Z,2.90
2022-10-23T10:04:31.893Z,3.25
2022-10-23T10:07:01.520Z,2.83
2022-10-23T10:09:28.880Z,2.65
2022-10-23T10:11:58.713Z,2.38
2022-10-23T10:14:49.468Z,2.00
2022-10-23T10:17:22.722Z,2.35
2022-10-23T10:20:02.488Z,2.22
2022-10-23T10:22:36.300Z,1.90
2022-10-23T10:25:08.201Z,2.00
2022-10-23T10:27:42.929Z,2.17
2022-10-23T10:32:41.391Z,2.00
2022-10-23T10:35:26.526Z,1.90
2022-10-23T10:38:10.579Z,2.22
2022-10-23T10:40:40.495Z,1.77
2022-10-23T10:43:15.369Z,2.20
2022-10-23T10:45:47.303Z,1.65
2022-10-23T10:48:23.879Z,2.35
2022-10-23T10:50:53.059Z,2.25
2022-10-23T10:53:24.303Z,1.95
2022-10-23T10:55:52.757Z,1.67
2022-10-23T10:58:22.203Z,1.70
2022-10-23T11:00:51.186Z,1.80
2022-10-23T11:03:26.413Z,1.95
2022-10-23T11:05:54.994Z,1.90
2022-10-23T11:08:27.849Z,1.80
2022-10-23T11:11:00.502Z,2.00
2022-10-23T11:13:28.755Z,1.95
2022-10-23T11:15:58.949Z,1.90
2022-10-23T11:18:29.290Z,1.77
2022-10-23T11:21:07.932Z,2.00
2022-10-23T11:23:47.630Z,2.17
2022-10-23T11:26:21.071Z,2.17
2022-10-23T11:28:54.867Z,1.92
2022-10-23T11:31:27.464Z,1.80
2022-10-23T11:34:05.625Z,2.20
2022-10-23T11:36:47.861Z,2.67
2022-10-23T11:39:20.912Z,2.00
2022-10-23T11:41:49.765Z,1.80
2022-10-23T11:44:24.814Z,2.42
2022-10-23T11:47:00.987Z,1.95
2022-10-23T11:49:29.731Z,2.00
2022-10-23T11:52:01.105Z,1.65
2022-10-23T11:54:28.476Z,1.80
2022-10-23T11:57:03.710Z,2.03
2022-10-23T11:59:32.020Z,2.58
2022-10-23T12:02:01.133Z,2.22
2022-10-23T12:04:33.746Z,1.85
2022-10-23T12:07:02.388Z,1.80
2022-10-23T12:09:31.414Z,2.20
2022-10-23T12:12:19.755Z,1.80
2022-10-23T12:14:47.701Z,1.90
2022-10-23T12:17:32.840Z,2.28
2022-10-23T12:20:13.473Z,1.98
2022-10-23T12:22:44.619Z,1.88
2022-10-23T12:25:14.150Z,2.33
2022-10-23T12:27:43.307Z,2.10
2022-10-23T12:30:15.518Z,1.90
2022-10-23T12:32:57.733Z,2.22
2022-10-23T12:35:48.643Z,2.08
2022-10-23T12:38:16.927Z,2.30
2022-10-23T12:40:45.257Z,1.98
2022-10-23T12:43:22.430Z,2.08
2022-10-23T12:45:50.321Z,2.22
2022-10-23T12:48:19.317Z,2.28
2022-10-23T12:50:51.395Z,2.28
2022-10-23T12:53:19.306Z,1.80
2022-10-23T12:55:52.427Z,1.98
2022-10-23T12:58:20.793Z,2.30
2022-10-23T13:00:51.725Z,2.40
2022-10-23T13:03:20.923Z,2.28
2022-10-23T13:05:50.491Z,2.33
2022-10-23T13:08:18.559Z,2.40
2022-10-23T13:10:46.107Z,2.67
2022-10-23T13:13:14.289Z,2.53
2022-10-23T13:15:42.554Z,2.30
2022-10-23T13:18:11.010Z,2.80
2022-10-23T13:20:39.301Z,2.53
2022-10-23T13:23:13.119Z,2.25
2022-10-23T13:25:40.844Z,3.03
2022-10-23T13:28:17.084Z,2.70
2022-10-23T13:30:46.191Z,2.53
2022-10-23T13:33:24.071Z,2.60
2022-10-23T13:35:58.195Z,2.60
2022-10-23T13:38:30.535Z,2.23
2022-10-23T13:40:59.125Z,2.50
2022-10-23T13:43:27.070Z,2.53
2022-10-23T13:45:54.548Z,2.70
2022-10-23T13:48:21.996Z,2.10
2022-10-23T13:50:49.436Z,2.40
2022-10-23T13:53:17.139Z,2.45
2022-10-23T13:55:46.982Z,2.33
2022-10-23T13:58:14.330Z,2.88
2022-10-23T14:00:43.539Z,2.95
2022-10-23T14:03:11.268Z,2.83
2022-10-23T14:05:38.624Z,2.70
2022-10-23T14:08:06.141Z,3.67
2022-10-23T14:10:33.750Z,3.83
2022-10-23T14:13:02.389Z,2.78
2022-10-23T14:15:29.743Z,2.65
2022-10-23T14:17:59.499Z,2.88
2022-10-23T14:20:27.883Z,3.00
2022-10-23T14:22:55.359Z,3.63
2022-10-23T14:25:22.970Z,3.00
2022-10-23T14:27:50.323Z,2.20
2022-10-23T14:30:19.004Z,2.78
2022-10-23T14:32:46.723Z,3.28
2022-10-23T14:35:14.278Z,2.67
2022-10-23T14:37:41.853Z,3.05
2022-10-23T14:40:09.945Z,4.13
2022-10-23T14:42:37.335Z,5.45
2022-10-23T14:45:05.089Z,3.40
2022-10-23T14:47:33.866Z,2.42
2022-10-23T14:50:01.181Z,2.97
2022-10-23T14:52:28.884Z,3.92
2022-10-23T14:54:56.281Z,3.85
2022-10-23T14:57:23.758Z,3.45
2022-10-23T14:59:51.107Z,4.00
2022-10-23T15:02:18.448Z,3.20
2022-10-23T15:04:47.246Z,4.65
2022-10-23T15:07:14.883Z,3.38
2022-10-23T15:09:42.320Z,2.78
2022-10-23T15:12:09.621Z,2.53
2022-10-23T15:14:36.962Z,3.03
2022-10-23T15:17:04.308Z,3.10
2022-10-23T15:19:31.604Z,3.00
2022-10-23T15:22:00.269Z,3.00
2022-10-23T15:24:27.615Z,3.20
2022-10-23T15:26:54.933Z,3.38
2022-10-23T15:29:22.912Z,3.90
2022-10-23T15:31:53.460Z,4.32
2022-10-23T15:34:21.734Z,4.07
2022-10-23T15:36:49.468Z,3.67
2022-10-23T15:39:20.064Z,4.25
2022-10-23T15:41:47.561Z,3.80
2022-10-23T15:44:15.943Z,3.13
2022-10-23T15:46:43.953Z,4.38
2022-10-23T15:49:11.511Z,3.80
2022-10-23T15:51:39.531Z,3.67
2022-10-23T15:54:07.847Z,3.50
2022-10-23T15:56:36.588Z,3.80
2022-10-23T15:59:04.172Z,4.07
2022-10-23T16:01:31.644Z,3.70
2022-10-23T16:03:59.122Z,3.90
2022-10-23T16:06:26.514Z,3.65
2022-10-23T16:11:27.106Z,4.22
2022-10-23T16:13:56.647Z,4.50
2022-10-23T16:16:24.539Z,4.40
2022-10-23T16:18:52.178Z,4.50
2022-10-23T16:21:20.380Z,4.60
2022-10-23T16:23:48.066Z,4.50
2022-10-23T16:26:16.081Z,5.88
2022-10-23T16:28:46.298Z,5.32
2022-10-23T16:31:20.005Z,5.00
2022-10-23T16:33:48.243Z,4.70
2022-10-23T16:36:17.296Z,4.07
2022-10-23T16:38:44.672Z,4.15
2022-10-23T16:41:12.024Z,4.45
2022-10-23T16:43:40.345Z,5.18
2022-10-23T16:46:08.312Z,4.57
2022-10-23T16:48:37.163Z,4.95
2022-10-23T16:51:06.263Z,5.40
2022-10-23T16:53:33.941Z,6.20
2022-10-23T16:56:01.296Z,8.77
2022-10-23T16:58:28.695Z,7.05
2022-10-23T17:00:56.749Z,6.70
2022-10-23T17:03:24.272Z,7.28
2022-10-23T17:05:52.987Z,8.23
2022-10-23T17:08:20.368Z,8.23
2022-10-23T17:10:47.738Z,8.50
2022-10-23T17:13:15.206Z,8.85
2022-10-23T17:15:42.582Z,9.23
2022-10-23T17:18:09.906Z,9.48
2022-10-23T17:20:37.364Z,9.77
2022-10-23T17:23:06.040Z,9.98
2022-10-23T17:25:33.402Z,9.60
2022-10-23T17:28:00.754Z,8.85
2022-10-23T17:30:28.078Z,8.98
2022-10-23T17:32:59.396Z,9.38
2022-10-23T17:35:28.448Z,8.85
2022-10-23T17:37:55.819Z,8.23
2022-10-23T17:40:25.654Z,6.90
2022-10-23T17:42:52.991Z,5.75
2022-10-23T17:45:20.372Z,5.15
2022-10-23T17:47:47.689Z,4.45
2022-10-23T17:50:15.092Z,4.95
2022-10-23T17:52:43.291Z,4.13
2022-10-23T17:55:10.989Z,4.18
2022-10-23T17:57:39.648Z,3.70
2022-10-23T18:00:07.481Z,3.95
2022-10-23T18:02:34.894Z,4.70
2022-10-23T18:05:02.306Z,3.60
2022-10-23T18:07:29.599Z,3.53
2022-10-23T18:09:56.898Z,3.13
2022-10-23T18:12:24.240Z,2.88
2022-10-23T18:14:52.954Z,3.05
2022-10-23T18:17:20.303Z,2.72
2022-10-23T18:19:50.507Z,3.03
2022-10-23T18:24:46.275Z,2.53
2022-10-23T18:27:13.598Z,2.97
2022-10-23T18:29:43.245Z,3.00
2022-10-23T18:32:11.903Z,2.97
2022-10-23T18:34:39.260Z,3.72
2022-10-23T18:37:06.574Z,3.45
2022-10-23T18:39:33.976Z,3.45
2022-10-23T18:42:01.267Z,3.15
2022-10-23T18:44:29.268Z,3.42
2022-10-23T18:46:57.415Z,3.42
2022-10-23T18:49:26.386Z,3.10
2022-10-23T18:51:53.682Z,2.85
2022-10-23T18:54:21.854Z,2.65
2022-10-23T18:56:49.510Z,2.30
2022-10-23T18:59:18.729Z,2.80
2022-10-23T19:01:46.162Z,2.13
2022-10-23T19:04:15.782Z,2.60
2022-10-23T19:06:44.829Z,1.92
2022-10-23T19:09:13.728Z,1.75
2022-10-23T19:11:41.321Z,2.20
2022-10-23T19:14:08.814Z,1.70
2022-10-23T19:16:38.015Z,1.50
2022-10-23T19:19:07.255Z,1.35
2022-10-23T19:21:36.265Z,1.50
2022-10-23T19:24:06.370Z,1.25
2022-10-23T19:26:35.240Z,1.90
2022-10-23T19:29:02.910Z,1.80
2022-10-23T19:31:30.249Z,1.45
2022-10-23T19:33:57.573Z,1.98
2022-10-23T19:36:24.871Z,1.90
2022-10-23T19:38:52.207Z,1.88
2022-10-23T19:41:21.261Z,2.42
2022-10-23T19:43:48.580Z,2.58
2022-10-23T19:46:16.113Z,2.63
2022-10-23T19:48:44.844Z,2.65
2022-10-23T19:51:13.350Z,2.97
2022-10-23T19:53:41.647Z,2.70
2022-10-23T19:56:10.225Z,2.53
2022-10-23T19:58:39.199Z,2.60
2022-10-23T20:01:13.624Z,2.75
2022-10-23T20:03:41.468Z,2.90
2022-10-23T20:06:09.647Z,3.10
2022-10-23T20:08:36.993Z,3.25
2022-10-23T20:11:04.313Z,4.15
2022-10-23T20:13:31.651Z,3.33
2022-10-23T20:16:00.352Z,4.13
2022-10-23T20:18:27.746Z,2.55
2022-10-23T20:20:55.107Z,3.08
2022-10-23T20:23:22.692Z,2.35
2022-10-23T20:25:50.003Z,2.30
2022-10-23T20:28:17.459Z,3.25
2022-10-23T20:30:45.916Z,2.65
2022-10-23T20:33:14.616Z,2.55
2022-10-23T20:35:42.468Z,2.00
2022-10-23T20:38:10.056Z,2.60
2022-10-23T20:40:37.412Z,2.70
2022-10-23T20:43:04.931Z,2.40
2022-10-23T20:45:32.303Z,2.78
2022-10-23T20:47:59.597Z,3.05
2022-10-23T20:50:28.330Z,2.72
2022-10-23T20:52:55.672Z,2.55
2022-10-23T20:55:23.028Z,2.88
2022-10-23T20:57:50.318Z,2.55
2022-10-23T21:00:17.793Z,2.50
2022-10-23T21:02:47.224Z,2.70
2022-10-23T21:05:17.395Z,2.75
2022-10-23T21:07:46.075Z,2.63
2022-10-23T21:10:13.396Z,2.88
2022-10-23T21:12:40.754Z,3.00
2022-10-23T21:15:09.088Z,2.88
2022-10-23T21:17:38.814Z,2.90
2022-10-23T21:20:06.472Z,2.97
2022-10-23T21:22:33.837Z,3.28
2022-10-23T21:25:02.534Z,3.22
2022-10-23T21:27:29.823Z,3.00
2022-10-23T21:29:57.130Z,3.42
2022-10-23T21:32:24.463Z,3.00
2022-10-23T21:34:51.798Z,2.83
2022-10-23T21:37:19.144Z,3.83
2022-10-23T21:39:46.829Z,4.07
2022-10-23T21:42:15.640Z,4.70
2022-10-23T21:44:44.203Z,5.28
2022-10-23T21:47:11.504Z,4.10
2022-10-23T21:49:38.889Z,4.35
2022-10-23T21:52:06.211Z,4.50
2022-10-23T21:54:33.665Z,4.35
2022-10-23T21:57:03.075Z,4.32
2022-10-23T21:59:35.477Z,4.35
2022-10-23T22:02:03.265Z,4.50
2022-10-23T22:04:30.657Z,4.07
2022-10-23T22:06:58.003Z,3.85
2022-10-23T22:09:25.315Z,4.18
2022-10-23T22:11:53.237Z,4.30
2022-10-23T22:14:20.801Z,4.47
2022-10-23T22:16:49.808Z,4.28
2022-10-23T22:19:17.689Z,4.40
2022-10-23T22:21:44.991Z,4.05
2022-10-23T22:24:12.349Z,4.13
2022-10-23T22:26:41.084Z,3.60
2022-10-23T22:29:09.352Z,3.08
2022-10-23T22:31:37.027Z,3.50
2022-10-23T22:34:18.641Z,3.67
2022-10-23T22:36:54.810Z,3.17
2022-10-23T22:39:22.236Z,3.60
2022-10-23T22:41:49.599Z,3.97
2022-10-23T22:44:17.045Z,3.88
2022-10-23T22:46:45.009Z,3.58
2022-10-23T22:49:13.629Z,3.78
2022-10-23T22:51:41.129Z,3.40
2022-10-23T22:54:08.532Z,3.97
2022-10-23T22:56:35.834Z,4.00
2022-10-23T22:59:03.930Z,3.58
2022-10-23T23:01:32.557Z,3.78
2022-10-23T23:04:08.797Z,3.97
2022-10-23T23:06:49.041Z,3.17
2022-10-23T23:09:18.127Z,4.03
2022-10-23T23:11:51.739Z,4.50
2022-10-23T23:14:23.105Z,3.80
2022-10-23T23:16:51.864Z,2.95
2022-10-23T23:19:19.219Z,3.88
2022-10-23T23:21:46.523Z,3.90
2022-10-23T23:24:15.255Z,3.80
2022-10-23T23:26:42.594Z,3.60
2022-10-23T23:29:09.979Z,3.58
2022-10-23T23:31:37.321Z,4.35
2022-10-23T23:34:04.603Z,3.00
2022-10-23T23:36:32.488Z,3.28
2022-10-23T23:38:59.822Z,3.72
2022-10-23T23:41:29.141Z,3.45
2022-10-23T23:43:57.301Z,4.53
2022-10-23T23:46:25.218Z,3.90
2022-10-23T23:48:52.513Z,3.20
2022-10-23T23:51:21.170Z,3.58
2022-10-23T23:53:48.907Z,3.85
2022-10-23T23:56:16.454Z,4.50
2022-10-23T23:58:45.146Z,4.50
